ilmateenistus.ee keskkonnaagentuur.ee
EETN Таллинн
FTEO31 EETN 201100
TAF EETN 201125Z 2012/2112 18010KT 9999 SCT045 TEMPO 2012/2021
    VRB20KT 4000 TSRA SCT035CB SCT040 PROB30 TEMPO 2021/2106 2000 BR
    BKN005 BECMG 2108/2110 29012KT TEMPO 2109/2112 TSRA SCT007 SCT030CB=

METAR EETN 201450Z 21010KT 9999 FEW040TCU 28/11 Q1009 NOSIG=
Таллинн
EEKA Кярдла
FCEO32 EETN 201200
TAF EEKA 201200Z 2013/2019 16012KT 9999 SCT045 TEMPO 2013/2016
    SCT030CB PROB40 TEMPO 2013/2016 VRB20KT 4000 TSRA SCT025CB=

METAR EEKA 201450Z 16008KT 130V210 CAVOK 27/16 Q1008=
Кярдла
EEKE Курессааре
FCEO32 EETN 201400
TAF EEKE 201400Z 2015/2021 17012KT 9999 SCT030 TEMPO 2015/2016
    VRB20KT 4000 TSRA BKN040CB=

METAR EEKE 201450Z 18010KT 9999 FEW030 BKN080CB 24/16 Q1009=
Курессааре
EEPU Пярну
METAR EEPU 201450Z NIL=
Пярну
EETU Тарту
METAR EETU 201450Z 16007KT CAVOK 28/13 Q1011=
Тарту
EEEI Эмари
METAR EEEI 201450Z 18012KT CAVOK 28/14 Q1009 NOSIG=
Эмари